Seward, AK (99664)

12:45 PM AKDT on August 28, 2016 (GMT -0800)
Oak Street Forest Acres Seward Alaska | | Change Station

Elev 144 ft 60.14 °N, 149.44 °W | Updated 30 seconds ago

Clear
Clear
69.7 °F
Feels Like 69.7 °F
N
4.0
Wind Variable Wind from ENE

Today
High -- | Low -- °F
--% Chance of Precip.
Yesterday
High -- | Low -- °F
Precip. -- in
Pressure 29.93 in
Visibility 10.0 miles
Clouds Clear
Dew Point 52 °F
Humidity 53%
Rainfall 0.00 in
Snow Depth Not available.
6:44 AM 9:11 PM
Waning Crescent, 13% visible
METAR PAWD 281953Z AUTO 02012G19KT 10SM CLR 20/09 A2993 RMK AO2 PK WND 01026/1912 SLP135 T02000094 TSNO $
Pressure 29.93 in
Visibility 10.0 miles
Clouds Clear
Dew Point 52 °F
Humidity 53%
Rainfall 0.00 in
Snow Depth Not available.
6:44 AM 9:11 PM
Waning Crescent, 13% visible
METAR PAWD 281953Z AUTO 02012G19KT 10SM CLR 20/09 A2993 RMK AO2 PK WND 01026/1912 SLP135 T02000094 TSNO $

10-Day Weather Forecast

Almanac

Astronomy

Aug. 28, 2016 Rise Set
Actual Time
Civil Twilight
Nautical Twilight
Astronomical Twilight
Moon
Length of Visible Light
Length of Day
Tomorrow will be .
, % of the Moon is Illuminated

Today's Extremes

State Highs State Lows

Community

WunderPhotos

Upload Photos

1,935,689 photos uploaded!

WunderBlog® & News

Nearby

Air Quality

  Air Quality AQ Index Pollutant
Not available.

Snow Depth

Station Depth Elevation

Earthquake Activity

City Distance Mag. Time & Date
Minimum magnitude displayed is 2.5.

Coastal Water Temperatures

Place Temperature

Stations

Nearby Weather Stations

Station Location Temp. Windchill Dew Point Humidity Wind Precip. Elev Updated Type
                   

Watches & Warnings

There are currently no watches in effect.